sensor_id;sensor_type;location;lat;lon;timestamp;P1;durP1;ratioP1;P2;durP2;ratioP2
21611;SDS011;47005;52.292;13.452;2022-09-09T00:01:43;7.45;;;3.72;;
21611;SDS011;47005;52.292;13.452;2022-09-09T00:04:03;8.05;;;3.55;;
21611;SDS011;47005;52.292;13.452;2022-09-09T00:07:09;5.53;;;3.15;;
21611;SDS011;47005;52.292;13.452;2022-09-09T00:09:35;5.20;;;3.10;;
21611;SDS011;47005;52.292;13.452;2022-09-09T00:12:17;7.38;;;3.55;;
21611;SDS011;47005;52.292;13.452;2022-09-09T00:15:11;3.78;;;2.72;;
21611;SDS011;47005;52.292;13.452;2022-09-09T00:17:43;4.80;;;3.30;;
21611;SDS011;47005;52.292;13.452;2022-09-09T00:20:35;5.22;;;3.65;;
21611;SDS011;47005;52.292;13.452;2022-09-09T00:25:46;5.72;;;3.45;;
21611;SDS011;47005;52.292;13.452;2022-09-09T00:28:18;4.25;;;3.03;;
21611;SDS011;47005;52.292;13.452;2022-09-09T00:30:47;4.53;;;3.05;;
21611;SDS011;47005;52.292;13.452;2022-09-09T00:33:13;4.15;;;3.03;;
21611;SDS011;47005;52.292;13.452;2022-09-09T00:35:56;4.00;;;2.90;;
21611;SDS011;47005;52.292;13.452;2022-09-09T00:38:24;4.80;;;3.65;;
21611;SDS011;47005;52.292;13.452;2022-09-09T00:43:37;4.25;;;3.08;;
21611;SDS011;47005;52.292;13.452;2022-09-09T00:55:12;4.40;;;3.45;;
21611;SDS011;47005;52.292;13.452;2022-09-09T00:57:48;4.20;;;3.28;;
21611;SDS011;47005;52.292;13.452;2022-09-09T01:08:17;4.03;;;2.75;;
21611;SDS011;47005;52.292;13.452;2022-09-09T01:11:00;6.75;;;3.10;;
21611;SDS011;47005;52.292;13.452;2022-09-09T01:13:31;5.45;;;2.92;;
21611;SDS011;47005;52.292;13.452;2022-09-09T01:16:00;6.25;;;3.80;;
21611;SDS011;47005;52.292;13.452;2022-09-09T01:19:01;6.53;;;3.72;;
21611;SDS011;47005;52.292;13.452;2022-09-09T01:26:43;4.53;;;2.95;;
21611;SDS011;47005;52.292;13.452;2022-09-09T01:29:11;4.25;;;3.20;;
21611;SDS011;47005;52.292;13.452;2022-09-09T01:31:58;4.30;;;3.00;;
21611;SDS011;47005;52.292;13.452;2022-09-09T01:34:27;5.47;;;2.95;;
21611;SDS011;47005;52.292;13.452;2022-09-09T01:37:08;6.03;;;2.78;;
21611;SDS011;47005;52.292;13.452;2022-09-09T01:39:35;4.45;;;2.92;;
21611;SDS011;47005;52.292;13.452;2022-09-09T01:42:03;5.90;;;3.70;;
21611;SDS011;47005;52.292;13.452;2022-09-09T01:44:32;4.78;;;3.33;;
21611;SDS011;47005;52.292;13.452;2022-09-09T01:46:58;6.32;;;4.28;;
21611;SDS011;47005;52.292;13.452;2022-09-09T01:49:24;5.93;;;3.60;;
21611;SDS011;47005;52.292;13.452;2022-09-09T01:51:51;6.30;;;3.30;;
21611;SDS011;47005;52.292;13.452;2022-09-09T01:54:19;5.30;;;3.95;;
21611;SDS011;47005;52.292;13.452;2022-09-09T01:59:41;5.10;;;3.83;;
21611;SDS011;47005;52.292;13.452;2022-09-09T02:07:53;12.57;;;4.00;;
21611;SDS011;47005;52.292;13.452;2022-09-09T02:13:17;4.60;;;3.00;;
21611;SDS011;47005;52.292;13.452;2022-09-09T02:18:34;4.28;;;2.78;;
21611;SDS011;47005;52.292;13.452;2022-09-09T02:21:15;6.85;;;3.00;;
21611;SDS011;47005;52.292;13.452;2022-09-09T02:23:42;5.57;;;3.25;;
21611;SDS011;47005;52.292;13.452;2022-09-09T02:26:12;4.95;;;3.33;;
21611;SDS011;47005;52.292;13.452;2022-09-09T02:28:44;5.13;;;3.72;;
21611;SDS011;47005;52.292;13.452;2022-09-09T02:31:11;4.60;;;3.25;;
21611;SDS011;47005;52.292;13.452;2022-09-09T02:33:41;5.18;;;3.33;;
21611;SDS011;47005;52.292;13.452;2022-09-09T02:36:09;6.35;;;3.55;;
21611;SDS011;47005;52.292;13.452;2022-09-09T02:38:38;5.18;;;3.28;;
21611;SDS011;47005;52.292;13.452;2022-09-09T02:41:08;4.50;;;2.92;;
21611;SDS011;47005;52.292;13.452;2022-09-09T02:43:34;5.70;;;3.67;;
21611;SDS011;47005;52.292;13.452;2022-09-09T02:51:36;5.78;;;3.60;;
21611;SDS011;47005;52.292;13.452;2022-09-09T02:54:27;5.95;;;3.20;;
21611;SDS011;47005;52.292;13.452;2022-09-09T02:56:56;5.13;;;3.47;;
21611;SDS011;47005;52.292;13.452;2022-09-09T02:59:36;4.82;;;3.45;;
21611;SDS011;47005;52.292;13.452;2022-09-09T03:02:02;4.53;;;3.10;;
21611;SDS011;47005;52.292;13.452;2022-09-09T03:04:28;4.95;;;3.08;;
21611;SDS011;47005;52.292;13.452;2022-09-09T03:06:55;5.03;;;3.30;;
21611;SDS011;47005;52.292;13.452;2022-09-09T03:09:20;4.53;;;3.42;;
21611;SDS011;47005;52.292;13.452;2022-09-09T03:11:46;8.30;;;3.60;;
21611;SDS011;47005;52.292;13.452;2022-09-09T03:14:12;6.03;;;3.42;;
21611;SDS011;47005;52.292;13.452;2022-09-09T03:16:37;5.93;;;3.25;;
21611;SDS011;47005;52.292;13.452;2022-09-09T03:19:03;6.60;;;2.92;;
21611;SDS011;47005;52.292;13.452;2022-09-09T03:21:29;6.25;;;3.53;;
21611;SDS011;47005;52.292;13.452;2022-09-09T03:23:54;9.38;;;3.28;;
21611;SDS011;47005;52.292;13.452;2022-09-09T03:26:20;5.13;;;3.17;;
21611;SDS011;47005;52.292;13.452;2022-09-09T03:28:46;5.30;;;3.70;;
21611;SDS011;47005;52.292;13.452;2022-09-09T03:31:11;5.55;;;3.80;;
21611;SDS011;47005;52.292;13.452;2022-09-09T03:33:37;8.40;;;3.17;;
21611;SDS011;47005;52.292;13.452;2022-09-09T03:36:04;8.75;;;3.78;;
21611;SDS011;47005;52.292;13.452;2022-09-09T03:38:30;5.18;;;3.80;;
21611;SDS011;47005;52.292;13.452;2022-09-09T03:40:57;5.57;;;3.72;;
21611;SDS011;47005;52.292;13.452;2022-09-09T03:43:23;5.53;;;3.63;;
21611;SDS011;47005;52.292;13.452;2022-09-09T03:45:49;4.90;;;3.13;;
21611;SDS011;47005;52.292;13.452;2022-09-09T03:48:15;6.82;;;3.47;;
21611;SDS011;47005;52.292;13.452;2022-09-09T03:50:49;4.90;;;2.92;;
21611;SDS011;47005;52.292;13.452;2022-09-09T03:53:16;4.50;;;2.83;;
21611;SDS011;47005;52.292;13.452;2022-09-09T03:55:48;6.35;;;4.10;;
21611;SDS011;47005;52.292;13.452;2022-09-09T03:58:19;3.63;;;2.75;;
21611;SDS011;47005;52.292;13.452;2022-09-09T04:00:56;4.57;;;3.17;;
21611;SDS011;47005;52.292;13.452;2022-09-09T04:03:23;5.47;;;2.97;;
21611;SDS011;47005;52.292;13.452;2022-09-09T04:05:53;4.25;;;3.08;;
21611;SDS011;47005;52.292;13.452;2022-09-09T04:08:20;5.03;;;3.30;;
21611;SDS011;47005;52.292;13.452;2022-09-09T04:10:46;6.47;;;3.50;;
21611;SDS011;47005;52.292;13.452;2022-09-09T04:13:14;4.35;;;3.05;;
21611;SDS011;47005;52.292;13.452;2022-09-09T04:15:41;5.00;;;3.08;;
21611;SDS011;47005;52.292;13.452;2022-09-09T04:18:07;3.95;;;2.88;;
21611;SDS011;47005;52.292;13.452;2022-09-09T04:20:33;3.80;;;2.92;;
21611;SDS011;47005;52.292;13.452;2022-09-09T04:22:59;4.93;;;3.05;;
21611;SDS011;47005;52.292;13.452;2022-09-09T04:25:24;3.90;;;2.72;;
21611;SDS011;47005;52.292;13.452;2022-09-09T04:27:57;3.95;;;2.65;;
21611;SDS011;47005;52.292;13.452;2022-09-09T04:30:23;8.82;;;2.83;;
21611;SDS011;47005;52.292;13.452;2022-09-09T04:32:49;3.95;;;2.70;;
21611;SDS011;47005;52.292;13.452;2022-09-09T04:35:15;4.25;;;3.00;;
21611;SDS011;47005;52.292;13.452;2022-09-09T04:37:41;4.32;;;2.80;;
21611;SDS011;47005;52.292;13.452;2022-09-09T04:40:07;4.25;;;3.38;;
21611;SDS011;47005;52.292;13.452;2022-09-09T04:42:38;4.00;;;3.00;;
21611;SDS011;47005;52.292;13.452;2022-09-09T04:45:04;4.63;;;3.10;;
21611;SDS011;47005;52.292;13.452;2022-09-09T04:47:31;4.18;;;3.17;;
21611;SDS011;47005;52.292;13.452;2022-09-09T04:49:58;6.05;;;2.97;;
21611;SDS011;47005;52.292;13.452;2022-09-09T04:52:24;5.72;;;2.70;;
21611;SDS011;47005;52.292;13.452;2022-09-09T04:54:49;4.70;;;2.72;;
21611;SDS011;47005;52.292;13.452;2022-09-09T04:57:15;3.60;;;2.40;;
21611;SDS011;47005;52.292;13.452;2022-09-09T04:59:40;3.35;;;2.30;;
21611;SDS011;47005;52.292;13.452;2022-09-09T05:02:06;7.90;;;2.97;;
21611;SDS011;47005;52.292;13.452;2022-09-09T05:04:31;6.72;;;2.90;;
21611;SDS011;47005;52.292;13.452;2022-09-09T05:06:58;7.15;;;2.40;;
21611;SDS011;47005;52.292;13.452;2022-09-09T05:09:24;4.22;;;2.75;;
21611;SDS011;47005;52.292;13.452;2022-09-09T05:11:50;3.50;;;2.53;;
21611;SDS011;47005;52.292;13.452;2022-09-09T05:14:16;4.45;;;3.03;;
21611;SDS011;47005;52.292;13.452;2022-09-09T05:16:42;3.90;;;2.90;;
21611;SDS011;47005;52.292;13.452;2022-09-09T05:19:09;5.72;;;2.80;;
21611;SDS011;47005;52.292;13.452;2022-09-09T05:21:35;5.80;;;3.17;;
21611;SDS011;47005;52.292;13.452;2022-09-09T05:24:01;4.63;;;2.92;;
21611;SDS011;47005;52.292;13.452;2022-09-09T05:26:26;4.55;;;3.05;;
21611;SDS011;47005;52.292;13.452;2022-09-09T05:28:54;4.55;;;3.20;;
21611;SDS011;47005;52.292;13.452;2022-09-09T05:31:20;4.13;;;3.17;;
21611;SDS011;47005;52.292;13.452;2022-09-09T05:33:46;5.55;;;2.65;;
21611;SDS011;47005;52.292;13.452;2022-09-09T05:36:13;6.97;;;2.85;;
21611;SDS011;47005;52.292;13.452;2022-09-09T05:38:41;4.75;;;2.67;;
21611;SDS011;47005;52.292;13.452;2022-09-09T05:41:07;3.53;;;2.50;;
21611;SDS011;47005;52.292;13.452;2022-09-09T05:43:34;4.68;;;2.78;;
21611;SDS011;47005;52.292;13.452;2022-09-09T05:46:11;8.27;;;2.80;;
21611;SDS011;47005;52.292;13.452;2022-09-09T05:48:39;3.65;;;2.75;;
21611;SDS011;47005;52.292;13.452;2022-09-09T05:51:07;4.43;;;3.08;;
21611;SDS011;47005;52.292;13.452;2022-09-09T05:53:34;4.93;;;3.28;;
21611;SDS011;47005;52.292;13.452;2022-09-09T05:56:04;4.43;;;3.05;;
21611;SDS011;47005;52.292;13.452;2022-09-09T05:58:31;5.47;;;2.55;;
21611;SDS011;47005;52.292;13.452;2022-09-09T06:01:02;3.55;;;2.80;;
21611;SDS011;47005;52.292;13.452;2022-09-09T06:03:28;9.27;;;3.22;;
21611;SDS011;47005;52.292;13.452;2022-09-09T06:06:00;3.45;;;2.42;;
21611;SDS011;47005;52.292;13.452;2022-09-09T06:08:30;3.35;;;2.25;;
21611;SDS011;47005;52.292;13.452;2022-09-09T06:11:04;7.63;;;2.83;;
21611;SDS011;47005;52.292;13.452;2022-09-09T06:13:34;3.50;;;2.28;;
21611;SDS011;47005;52.292;13.452;2022-09-09T06:16:03;4.20;;;2.53;;
21611;SDS011;47005;52.292;13.452;2022-09-09T06:18:32;4.90;;;2.22;;
21611;SDS011;47005;52.292;13.452;2022-09-09T06:21:01;3.45;;;2.45;;
21611;SDS011;47005;52.292;13.452;2022-09-09T06:23:29;7.47;;;2.50;;
21611;SDS011;47005;52.292;13.452;2022-09-09T06:26:05;4.93;;;2.58;;
21611;SDS011;47005;52.292;13.452;2022-09-09T06:28:35;5.45;;;2.53;;
21611;SDS011;47005;52.292;13.452;2022-09-09T06:31:02;5.60;;;2.40;;
21611;SDS011;47005;52.292;13.452;2022-09-09T06:33:34;3.63;;;2.38;;
21611;SDS011;47005;52.292;13.452;2022-09-09T06:36:01;6.60;;;2.72;;
21611;SDS011;47005;52.292;13.452;2022-09-09T06:38:28;3.53;;;2.17;;
21611;SDS011;47005;52.292;13.452;2022-09-09T06:40:55;3.40;;;2.13;;
21611;SDS011;47005;52.292;13.452;2022-09-09T06:43:23;5.57;;;2.92;;
21611;SDS011;47005;52.292;13.452;2022-09-09T06:46:31;2.63;;;1.88;;
21611;SDS011;47005;52.292;13.452;2022-09-09T06:48:43;4.03;;;2.25;;
21611;SDS011;47005;52.292;13.452;2022-09-09T06:51:10;6.95;;;2.40;;
21611;SDS011;47005;52.292;13.452;2022-09-09T06:53:37;4.93;;;2.42;;
21611;SDS011;47005;52.292;13.452;2022-09-09T06:58:41;4.35;;;2.20;;
21611;SDS011;47005;52.292;13.452;2022-09-09T07:01:09;3.70;;;1.92;;
21611;SDS011;47005;52.292;13.452;2022-09-09T07:03:37;3.40;;;2.13;;
21611;SDS011;47005;52.292;13.452;2022-09-09T07:06:03;8.05;;;2.70;;
21611;SDS011;47005;52.292;13.452;2022-09-09T07:08:30;4.65;;;2.90;;
21611;SDS011;47005;52.292;13.452;2022-09-09T07:11:01;6.15;;;2.90;;
21611;SDS011;47005;52.292;13.452;2022-09-09T07:13:29;6.38;;;2.30;;
21611;SDS011;47005;52.292;13.452;2022-09-09T07:16:02;4.60;;;2.45;;
21611;SDS011;47005;52.292;13.452;2022-09-09T07:18:32;4.88;;;2.70;;
21611;SDS011;47005;52.292;13.452;2022-09-09T07:20:58;4.80;;;2.00;;
21611;SDS011;47005;52.292;13.452;2022-09-09T07:23:24;5.18;;;2.60;;
21611;SDS011;47005;52.292;13.452;2022-09-09T07:25:49;7.20;;;2.05;;
21611;SDS011;47005;52.292;13.452;2022-09-09T07:28:15;3.97;;;2.08;;
21611;SDS011;47005;52.292;13.452;2022-09-09T07:30:41;6.72;;;2.47;;
21611;SDS011;47005;52.292;13.452;2022-09-09T07:33:07;4.53;;;2.28;;
21611;SDS011;47005;52.292;13.452;2022-09-09T07:35:34;2.72;;;1.70;;
21611;SDS011;47005;52.292;13.452;2022-09-09T07:38:02;5.03;;;2.38;;
21611;SDS011;47005;52.292;13.452;2022-09-09T07:40:30;3.60;;;2.38;;
21611;SDS011;47005;52.292;13.452;2022-09-09T07:42:56;7.30;;;1.95;;
21611;SDS011;47005;52.292;13.452;2022-09-09T07:45:21;6.13;;;1.85;;
21611;SDS011;47005;52.292;13.452;2022-09-09T07:47:47;2.75;;;1.98;;
21611;SDS011;47005;52.292;13.452;2022-09-09T07:50:13;2.75;;;2.08;;
21611;SDS011;47005;52.292;13.452;2022-09-09T07:52:40;6.22;;;3.10;;
21611;SDS011;47005;52.292;13.452;2022-09-09T07:55:06;4.00;;;2.17;;
21611;SDS011;47005;52.292;13.452;2022-09-09T07:57:31;3.88;;;1.98;;
21611;SDS011;47005;52.292;13.452;2022-09-09T07:59:57;5.50;;;2.33;;
21611;SDS011;47005;52.292;13.452;2022-09-09T08:02:23;3.70;;;2.08;;
21611;SDS011;47005;52.292;13.452;2022-09-09T08:04:50;3.92;;;2.00;;
21611;SDS011;47005;52.292;13.452;2022-09-09T08:07:17;3.40;;;1.77;;
21611;SDS011;47005;52.292;13.452;2022-09-09T08:09:42;4.82;;;2.42;;
21611;SDS011;47005;52.292;13.452;2022-09-09T08:12:08;3.58;;;1.90;;
21611;SDS011;47005;52.292;13.452;2022-09-09T08:14:35;3.53;;;2.33;;
21611;SDS011;47005;52.292;13.452;2022-09-09T08:17:01;3.90;;;1.80;;
21611;SDS011;47005;52.292;13.452;2022-09-09T08:19:26;2.90;;;1.95;;
21611;SDS011;47005;52.292;13.452;2022-09-09T08:21:54;5.97;;;2.22;;
21611;SDS011;47005;52.292;13.452;2022-09-09T08:24:20;4.20;;;2.20;;
21611;SDS011;47005;52.292;13.452;2022-09-09T08:26:48;7.93;;;2.47;;
21611;SDS011;47005;52.292;13.452;2022-09-09T08:29:14;4.32;;;2.17;;
21611;SDS011;47005;52.292;13.452;2022-09-09T08:34:07;4.20;;;1.60;;
21611;SDS011;47005;52.292;13.452;2022-09-09T08:36:35;4.07;;;2.15;;
21611;SDS011;47005;52.292;13.452;2022-09-09T08:39:03;6.20;;;2.10;;
21611;SDS011;47005;52.292;13.452;2022-09-09T08:50:22;3.85;;;2.10;;
21611;SDS011;47005;52.292;13.452;2022-09-09T08:55:51;4.22;;;2.03;;
21611;SDS011;47005;52.292;13.452;2022-09-09T09:03:23;4.38;;;1.80;;
21611;SDS011;47005;52.292;13.452;2022-09-09T09:06:13;8.63;;;2.40;;
21611;SDS011;47005;52.292;13.452;2022-09-09T09:11:58;2.40;;;1.50;;
21611;SDS011;47005;52.292;13.452;2022-09-09T09:14:29;2.58;;;1.65;;
21611;SDS011;47005;52.292;13.452;2022-09-09T09:17:03;6.18;;;1.80;;
21611;SDS011;47005;52.292;13.452;2022-09-09T09:19:32;2.58;;;1.40;;
21611;SDS011;47005;52.292;13.452;2022-09-09T09:27:36;3.83;;;1.80;;
21611;SDS011;47005;52.292;13.452;2022-09-09T09:32:41;2.47;;;1.55;;
21611;SDS011;47005;52.292;13.452;2022-09-09T09:35:15;4.30;;;1.33;;
21611;SDS011;47005;52.292;13.452;2022-09-09T09:37:41;5.68;;;1.50;;
21611;SDS011;47005;52.292;13.452;2022-09-09T09:40:16;2.53;;;1.27;;
21611;SDS011;47005;52.292;13.452;2022-09-09T09:48:00;2.65;;;1.65;;
21611;SDS011;47005;52.292;13.452;2022-09-09T09:50:27;2.90;;;1.60;;
21611;SDS011;47005;52.292;13.452;2022-09-09T09:52:54;3.25;;;1.30;;
21611;SDS011;47005;52.292;13.452;2022-09-09T09:55:22;5.40;;;1.65;;
21611;SDS011;47005;52.292;13.452;2022-09-09T09:57:50;3.53;;;1.60;;
21611;SDS011;47005;52.292;13.452;2022-09-09T10:02:45;3.42;;;1.67;;
21611;SDS011;47005;52.292;13.452;2022-09-09T10:05:21;3.53;;;1.40;;
21611;SDS011;47005;52.292;13.452;2022-09-09T10:08:03;1.80;;;1.33;;
21611;SDS011;47005;52.292;13.452;2022-09-09T10:16:05;2.50;;;1.25;;
21611;SDS011;47005;52.292;13.452;2022-09-09T10:21:29;2.58;;;1.33;;
21611;SDS011;47005;52.292;13.452;2022-09-09T10:30:16;2.65;;;1.20;;
21611;SDS011;47005;52.292;13.452;2022-09-09T10:40:59;4.70;;;1.30;;
21611;SDS011;47005;52.292;13.452;2022-09-09T10:46:23;2.53;;;1.30;;
21611;SDS011;47005;52.292;13.452;2022-09-09T10:51:53;2.60;;;1.33;;
21611;SDS011;47005;52.292;13.452;2022-09-09T10:57:36;3.13;;;1.25;;
21611;SDS011;47005;52.292;13.452;2022-09-09T11:02:59;4.30;;;1.40;;
21611;SDS011;47005;52.292;13.452;2022-09-09T11:05:36;2.63;;;1.13;;
21611;SDS011;47005;52.292;13.452;2022-09-09T11:08:10;3.03;;;1.35;;
21611;SDS011;47005;52.292;13.452;2022-09-09T11:13:10;1.60;;;1.13;;
21611;SDS011;47005;52.292;13.452;2022-09-09T11:15:44;6.63;;;1.52;;
21611;SDS011;47005;52.292;13.452;2022-09-09T11:18:16;1.85;;;1.15;;
21611;SDS011;47005;52.292;13.452;2022-09-09T11:20:47;3.45;;;1.23;;
21611;SDS011;47005;52.292;13.452;2022-09-09T11:23:17;3.42;;;0.85;;
21611;SDS011;47005;52.292;13.452;2022-09-09T11:26:02;3.10;;;1.10;;
21611;SDS011;47005;52.292;13.452;2022-09-09T11:28:47;2.95;;;1.20;;
21611;SDS011;47005;52.292;13.452;2022-09-09T11:31:44;3.08;;;0.93;;
21611;SDS011;47005;52.292;13.452;2022-09-09T11:40:28;1.67;;;1.02;;
21611;SDS011;47005;52.292;13.452;2022-09-09T11:43:18;2.60;;;1.10;;
21611;SDS011;47005;52.292;13.452;2022-09-09T11:45:54;4.72;;;1.40;;
21611;SDS011;47005;52.292;13.452;2022-09-09T11:51:10;4.10;;;1.25;;
21611;SDS011;47005;52.292;13.452;2022-09-09T11:53:47;2.67;;;0.95;;
21611;SDS011;47005;52.292;13.452;2022-09-09T11:56:23;2.28;;;1.13;;
21611;SDS011;47005;52.292;13.452;2022-09-09T11:59:16;2.83;;;0.82;;
21611;SDS011;47005;52.292;13.452;2022-09-09T12:01:49;3.88;;;1.40;;
21611;SDS011;47005;52.292;13.452;2022-09-09T12:17:09;1.95;;;1.02;;
21611;SDS011;47005;52.292;13.452;2022-09-09T12:19:38;1.95;;;0.73;;
21611;SDS011;47005;52.292;13.452;2022-09-09T12:22:08;2.10;;;0.70;;
21611;SDS011;47005;52.292;13.452;2022-09-09T12:24:52;2.50;;;0.90;;
21611;SDS011;47005;52.292;13.452;2022-09-09T12:27:35;4.05;;;1.00;;
21611;SDS011;47005;52.292;13.452;2022-09-09T12:30:10;2.35;;;1.25;;
21611;SDS011;47005;52.292;13.452;2022-09-09T12:32:40;1.45;;;0.70;;
21611;SDS011;47005;52.292;13.452;2022-09-09T12:35:13;2.55;;;0.95;;
21611;SDS011;47005;52.292;13.452;2022-09-09T12:40:31;3.03;;;0.95;;
21611;SDS011;47005;52.292;13.452;2022-09-09T12:43:00;2.35;;;0.95;;
21611;SDS011;47005;52.292;13.452;2022-09-09T12:45:31;2.65;;;1.05;;
21611;SDS011;47005;52.292;13.452;2022-09-09T12:48:02;4.00;;;1.35;;
21611;SDS011;47005;52.292;13.452;2022-09-09T12:50:31;3.13;;;0.90;;
21611;SDS011;47005;52.292;13.452;2022-09-09T12:53:00;1.55;;;1.02;;
21611;SDS011;47005;52.292;13.452;2022-09-09T12:55:32;3.13;;;0.88;;
21611;SDS011;47005;52.292;13.452;2022-09-09T12:58:01;1.85;;;1.10;;
21611;SDS011;47005;52.292;13.452;2022-09-09T13:00:32;7.75;;;0.90;;
21611;SDS011;47005;52.292;13.452;2022-09-09T13:03:00;2.92;;;1.08;;
21611;SDS011;47005;52.292;13.452;2022-09-09T13:05:34;4.35;;;1.10;;
21611;SDS011;47005;52.292;13.452;2022-09-09T13:08:02;3.75;;;0.93;;
21611;SDS011;47005;52.292;13.452;2022-09-09T13:10:31;2.65;;;0.88;;
21611;SDS011;47005;52.292;13.452;2022-09-09T13:13:00;5.05;;;1.20;;
21611;SDS011;47005;52.292;13.452;2022-09-09T13:15:26;1.92;;;1.08;;
21611;SDS011;47005;52.292;13.452;2022-09-09T13:17:55;3.70;;;1.30;;
21611;SDS011;47005;52.292;13.452;2022-09-09T13:20:23;2.90;;;1.40;;
21611;SDS011;47005;52.292;13.452;2022-09-09T13:22:50;1.63;;;1.00;;
21611;SDS011;47005;52.292;13.452;2022-09-09T13:30:34;1.52;;;0.93;;
21611;SDS011;47005;52.292;13.452;2022-09-09T13:35:50;4.40;;;0.90;;
21611;SDS011;47005;52.292;13.452;2022-09-09T13:38:24;3.80;;;1.10;;
21611;SDS011;47005;52.292;13.452;2022-09-09T13:41:00;2.88;;;0.90;;
21611;SDS011;47005;52.292;13.452;2022-09-09T13:43:29;7.63;;;1.30;;
21611;SDS011;47005;52.292;13.452;2022-09-09T13:45:59;3.65;;;1.08;;
21611;SDS011;47005;52.292;13.452;2022-09-09T13:48:27;4.30;;;0.93;;
21611;SDS011;47005;52.292;13.452;2022-09-09T13:50:53;2.47;;;0.80;;
21611;SDS011;47005;52.292;13.452;2022-09-09T13:53:29;7.95;;;1.27;;
21611;SDS011;47005;52.292;13.452;2022-09-09T13:55:55;3.20;;;1.17;;
21611;SDS011;47005;52.292;13.452;2022-09-09T13:58:22;5.25;;;0.95;;
21611;SDS011;47005;52.292;13.452;2022-09-09T14:00:50;4.82;;;1.10;;
21611;SDS011;47005;52.292;13.452;2022-09-09T14:03:16;3.22;;;0.95;;
21611;SDS011;47005;52.292;13.452;2022-09-09T14:05:41;3.88;;;1.02;;
21611;SDS011;47005;52.292;13.452;2022-09-09T14:08:11;2.90;;;1.05;;
21611;SDS011;47005;52.292;13.452;2022-09-09T14:10:48;1.63;;;0.98;;
21611;SDS011;47005;52.292;13.452;2022-09-09T14:13:13;5.80;;;1.13;;
21611;SDS011;47005;52.292;13.452;2022-09-09T14:15:40;1.65;;;0.93;;
21611;SDS011;47005;52.292;13.452;2022-09-09T14:18:06;2.55;;;0.98;;
21611;SDS011;47005;52.292;13.452;2022-09-09T14:20:35;4.50;;;0.75;;
21611;SDS011;47005;52.292;13.452;2022-09-09T14:23:02;4.13;;;1.10;;
21611;SDS011;47005;52.292;13.452;2022-09-09T14:25:27;3.25;;;1.20;;
21611;SDS011;47005;52.292;13.452;2022-09-09T14:27:53;2.45;;;1.10;;
21611;SDS011;47005;52.292;13.452;2022-09-09T14:30:19;2.50;;;0.90;;
21611;SDS011;47005;52.292;13.452;2022-09-09T14:32:44;0.73;;;0.68;;
21611;SDS011;47005;52.292;13.452;2022-09-09T14:35:10;3.30;;;0.60;;
21611;SDS011;47005;52.292;13.452;2022-09-09T14:37:36;2.45;;;1.00;;
21611;SDS011;47005;52.292;13.452;2022-09-09T14:40:04;2.78;;;1.13;;
21611;SDS011;47005;52.292;13.452;2022-09-09T14:42:30;5.80;;;1.27;;
21611;SDS011;47005;52.292;13.452;2022-09-09T14:44:55;4.82;;;1.05;;
21611;SDS011;47005;52.292;13.452;2022-09-09T14:47:21;2.13;;;0.93;;
21611;SDS011;47005;52.292;13.452;2022-09-09T14:49:47;2.80;;;1.05;;
21611;SDS011;47005;52.292;13.452;2022-09-09T14:52:14;3.80;;;1.00;;
21611;SDS011;47005;52.292;13.452;2022-09-09T14:54:41;6.95;;;1.08;;
21611;SDS011;47005;52.292;13.452;2022-09-09T14:57:06;1.38;;;0.65;;
21611;SDS011;47005;52.292;13.452;2022-09-09T14:59:32;4.95;;;0.98;;
21611;SDS011;47005;52.292;13.452;2022-09-09T15:01:59;4.32;;;1.10;;
21611;SDS011;47005;52.292;13.452;2022-09-09T15:04:28;1.38;;;0.80;;
21611;SDS011;47005;52.292;13.452;2022-09-09T15:06:55;2.28;;;0.85;;
21611;SDS011;47005;52.292;13.452;2022-09-09T15:09:21;1.90;;;1.00;;
21611;SDS011;47005;52.292;13.452;2022-09-09T15:11:47;1.50;;;0.80;;
21611;SDS011;47005;52.292;13.452;2022-09-09T15:14:13;1.83;;;0.95;;
21611;SDS011;47005;52.292;13.452;2022-09-09T15:16:39;2.97;;;1.02;;
21611;SDS011;47005;52.292;13.452;2022-09-09T15:19:05;5.15;;;1.02;;
21611;SDS011;47005;52.292;13.452;2022-09-09T15:21:32;1.38;;;0.85;;
21611;SDS011;47005;52.292;13.452;2022-09-09T15:23:59;3.63;;;0.90;;
21611;SDS011;47005;52.292;13.452;2022-09-09T15:26:25;0.98;;;0.70;;
21611;SDS011;47005;52.292;13.452;2022-09-09T15:28:52;2.75;;;1.35;;
21611;SDS011;47005;52.292;13.452;2022-09-09T15:31:23;1.80;;;0.80;;
21611;SDS011;47005;52.292;13.452;2022-09-09T15:33:56;4.07;;;0.90;;
21611;SDS011;47005;52.292;13.452;2022-09-09T15:36:29;1.42;;;0.80;;
21611;SDS011;47005;52.292;13.452;2022-09-09T15:39:06;2.03;;;0.80;;
21611;SDS011;47005;52.292;13.452;2022-09-09T15:41:35;2.95;;;1.00;;
21611;SDS011;47005;52.292;13.452;2022-09-09T15:44:00;3.13;;;0.80;;
21611;SDS011;47005;52.292;13.452;2022-09-09T15:46:30;1.42;;;0.73;;
21611;SDS011;47005;52.292;13.452;2022-09-09T15:51:45;2.80;;;1.05;;
21611;SDS011;47005;52.292;13.452;2022-09-09T15:54:16;1.70;;;0.82;;
21611;SDS011;47005;52.292;13.452;2022-09-09T15:56:43;3.42;;;1.27;;
21611;SDS011;47005;52.292;13.452;2022-09-09T15:59:10;1.13;;;0.95;;
21611;SDS011;47005;52.292;13.452;2022-09-09T16:01:36;1.55;;;0.88;;
21611;SDS011;47005;52.292;13.452;2022-09-09T16:04:04;1.10;;;0.90;;
21611;SDS011;47005;52.292;13.452;2022-09-09T16:06:30;1.80;;;0.73;;
21611;SDS011;47005;52.292;13.452;2022-09-09T16:08:56;2.78;;;0.95;;
21611;SDS011;47005;52.292;13.452;2022-09-09T16:11:28;2.22;;;0.90;;
21611;SDS011;47005;52.292;13.452;2022-09-09T16:13:59;1.63;;;0.98;;
21611;SDS011;47005;52.292;13.452;2022-09-09T16:16:27;1.92;;;0.93;;
21611;SDS011;47005;52.292;13.452;2022-09-09T16:18:55;1.83;;;1.00;;
21611;SDS011;47005;52.292;13.452;2022-09-09T16:23:54;1.40;;;1.10;;
21611;SDS011;47005;52.292;13.452;2022-09-09T16:26:21;1.52;;;0.90;;
21611;SDS011;47005;52.292;13.452;2022-09-09T16:28:47;1.42;;;0.90;;
21611;SDS011;47005;52.292;13.452;2022-09-09T16:31:14;1.90;;;0.70;;
21611;SDS011;47005;52.292;13.452;2022-09-09T16:33:42;2.28;;;1.02;;
21611;SDS011;47005;52.292;13.452;2022-09-09T16:36:09;2.22;;;0.82;;
21611;SDS011;47005;52.292;13.452;2022-09-09T16:38:36;1.98;;;0.70;;
21611;SDS011;47005;52.292;13.452;2022-09-09T16:41:02;7.68;;;1.15;;
21611;SDS011;47005;52.292;13.452;2022-09-09T16:43:33;1.75;;;0.73;;
21611;SDS011;47005;52.292;13.452;2022-09-09T16:46:00;1.50;;;0.55;;
21611;SDS011;47005;52.292;13.452;2022-09-09T16:48:34;3.15;;;0.68;;
21611;SDS011;47005;52.292;13.452;2022-09-09T16:53:30;0.43;;;0.43;;
21611;SDS011;47005;52.292;13.452;2022-09-09T16:55:57;1.17;;;0.80;;
21611;SDS011;47005;52.292;13.452;2022-09-09T16:58:22;8.00;;;1.50;;
21611;SDS011;47005;52.292;13.452;2022-09-09T17:00:48;3.63;;;1.23;;
21611;SDS011;47005;52.292;13.452;2022-09-09T17:03:16;6.07;;;2.40;;
21611;SDS011;47005;52.292;13.452;2022-09-09T17:05:41;8.50;;;2.33;;
21611;SDS011;47005;52.292;13.452;2022-09-09T17:08:07;3.00;;;1.15;;
21611;SDS011;47005;52.292;13.452;2022-09-09T17:10:34;1.77;;;0.95;;
21611;SDS011;47005;52.292;13.452;2022-09-09T17:13:04;3.13;;;1.08;;
21611;SDS011;47005;52.292;13.452;2022-09-09T17:15:30;1.92;;;0.88;;
21611;SDS011;47005;52.292;13.452;2022-09-09T17:17:55;4.13;;;0.90;;
21611;SDS011;47005;52.292;13.452;2022-09-09T17:20:21;2.15;;;1.25;;
21611;SDS011;47005;52.292;13.452;2022-09-09T17:22:46;2.00;;;0.50;;
21611;SDS011;47005;52.292;13.452;2022-09-09T17:25:12;1.10;;;0.88;;
21611;SDS011;47005;52.292;13.452;2022-09-09T17:27:38;6.28;;;1.15;;
21611;SDS011;47005;52.292;13.452;2022-09-09T17:30:04;1.15;;;0.70;;
21611;SDS011;47005;52.292;13.452;2022-09-09T17:32:30;0.90;;;0.60;;